M I D A S
Marine Information and Data Acquisition System
Tripno 1282 of the Zeeleeuw from 2007-06-01 07:08:00 to 2007-06-01 14:50:19
Back to CruiseResearch ActivitiesStationsMapUnderway DataData graphs

EquipmentUnitsComment
TimeDGPSUTC
LatitudeDGPSDM.mWGS84
LongitudeDGPSDM.mWGS84
HeadingGyrodeg 
SOGDGPSknotsSpeed over ground
COGDGPSdegCourse over ground
DepthEcho soundermeters200 kHz
Missing or incorrect values are displayed as -999
Navigation data collected by the RV Zeeleeuw from 2007-06-01 06:37:52 to 2007-06-01 14:59:49
                                                                                    Next 1000 lines
Time Latitude Longitude Heading SOG COG Depth
2007-06-01 06:38:02 51°13.597 2°56.097 126.4 -999 54 5.3
2007-06-01 06:38:07 51°13.598 2°56.097 126.4 -999 358 7.1
2007-06-01 06:38:12 51°13.598 2°56.097 126.4 -999 225 5.4
2007-06-01 06:38:17 51°13.597 2°56.097 126.4 -999 204 7.1
2007-06-01 06:38:22 51°13.597 2°56.097 126.4 -999 13 7.1
2007-06-01 06:38:27 51°13.597 2°56.096 126.4 -999 230 7.1
2007-06-01 06:38:32 51°13.596 2°56.095 126.4 -999 199 7.1
2007-06-01 06:38:37 51°13.596 2°56.095 126.4 -999 25 7.1
2007-06-01 06:38:42 51°13.595 2°56.094 126.4 -999 338 7.1
2007-06-01 06:38:47 51°13.595 2°56.095 126.4 -999 8 5.4
2007-06-01 06:38:52 51°13.595 2°56.095 126.4 -999 8 7.1
2007-06-01 06:38:57 51°13.595 2°56.095 126.4 -999 10 -999
2007-06-01 06:39:02 51°13.595 2°56.095 126.4 -999 13 7.1
2007-06-01 06:39:07 51°13.595 2°56.095 126.4 -999 214 7.1
2007-06-01 06:39:12 51°13.595 2°56.095 126.3 -999 197 7.1
2007-06-01 06:39:17 51°13.595 2°56.095 126.3 -999 354 7.1
2007-06-01 06:39:22 51°13.595 2°56.095 126.3 -999 326 5.3
2007-06-01 06:39:27 51°13.596 2°56.094 126.3 -999 11 7.1
2007-06-01 06:39:32 51°13.596 2°56.094 126.3 -999 158 5.3
2007-06-01 06:39:37 51°13.596 2°56.094 126.3 -999 18 7.1
2007-06-01 06:39:42 51°13.596 2°56.094 126.3 -999 20 5.3
2007-06-01 06:39:47 51°13.596 2°56.094 126.3 -999 171 7.1
2007-06-01 06:39:52 51°13.596 2°56.094 126.3 -999 247 7.1
2007-06-01 06:39:57 51°13.596 2°56.095 126.3 -999 7 7.1
2007-06-01 06:40:02 51°13.596 2°56.095 126.3 -999 349 7.1
2007-06-01 06:40:07 51°13.596 2°56.095 126.3 -999 336 5.3
2007-06-01 06:40:12 51°13.596 2°56.094 126.3 -999 314 7.1
2007-06-01 06:40:17 51°13.596 2°56.094 126.3 -999 244 -999
2007-06-01 06:40:22 51°13.596 2°56.094 126.3 -999 12 7.1
2007-06-01 06:40:27 51°13.596 2°56.094 126.3 -999 98 7.1
2007-06-01 06:40:32 51°13.596 2°56.094 126.3 -999 254 7.1
2007-06-01 06:40:37 51°13.596 2°56.094 126.3 -999 304 7.1
2007-06-01 06:40:42 51°13.596 2°56.094 126.3 -999 9 5.3
2007-06-01 06:40:47 51°13.596 2°56.094 126.3 -999 16 7.1
2007-06-01 06:40:52 51°13.596 2°56.094 126.3 -999 356 -999
2007-06-01 06:40:57 51°13.597 2°56.094 126.3 -999 318 7.1
2007-06-01 06:41:02 51°13.597 2°56.094 126.3 -999 13 7.1
2007-06-01 06:41:07 51°13.597 2°56.094 126.3 -999 306 7.1
2007-06-01 06:41:12 51°13.597 2°56.094 126.3 -999 154 7.1
2007-06-01 06:41:17 51°13.597 2°56.094 126.3 -999 356 5.3
2007-06-01 06:41:22 51°13.597 2°56.094 126.3 -999 322 7.1
2007-06-01 06:41:27 51°13.597 2°56.094 126.3 -999 204 7.1
2007-06-01 06:41:32 51°13.597 2°56.094 126.3 -999 111 7.1
2007-06-01 06:41:37 51°13.597 2°56.094 126.3 -999 354 7.1
2007-06-01 06:41:42 51°13.597 2°56.094 126.3 -999 347 7.1
2007-06-01 06:41:47 51°13.597 2°56.094 126.3 -999 196 7.1
2007-06-01 06:41:52 51°13.597 2°56.094 126.3 -999 350 5.3
2007-06-01 06:41:57 51°13.597 2°56.094 126.3 -999 77 7.1
2007-06-01 06:42:02 51°13.597 2°56.094 126.3 -999 45 7.1
2007-06-01 06:42:07 51°13.597 2°56.094 126.3 -999 10 7.1
2007-06-01 06:42:12 51°13.597 2°56.094 126.3 -999 261 7.1
2007-06-01 06:42:17 51°13.597 2°56.094 126.3 -999 327 7.1
2007-06-01 06:42:22 51°13.597 2°56.094 126.3 -999 359 7.1
2007-06-01 06:42:27 51°13.597 2°56.094 126.3 -999 314 5.3
2007-06-01 06:42:32 51°13.597 2°56.095 126.3 -999 349 7.1
2007-06-01 06:42:37 51°13.597 2°56.095 126.3 -999 47 7.1
2007-06-01 06:42:42 51°13.597 2°56.095 126.3 -999 175 7.1
2007-06-01 06:42:47 51°13.597 2°56.095 126.3 -999 320 7.1
2007-06-01 06:42:52 51°13.597 2°56.095 126.3 -999 2 7.1
2007-06-01 06:42:57 51°13.597 2°56.095 126.3 -999 30 7.1
2007-06-01 06:43:02 51°13.597 2°56.095 126.3 -999 196 5.3
2007-06-01 06:43:07 51°13.597 2°56.095 126.3 -999 190 7.1
2007-06-01 06:43:12 51°13.597 2°56.095 126.3 0.1 9 7.1
2007-06-01 06:43:17 51°13.597 2°56.095 126.3 -999 344 7.1
2007-06-01 06:43:22 51°13.597 2°56.094 126.3 -999 188 7.1
2007-06-01 06:43:27 51°13.597 2°56.094 126.3 -999 33 7.1
2007-06-01 06:43:32 51°13.597 2°56.094 126.3 -999 189 7.1
2007-06-01 06:43:37 51°13.597 2°56.094 126.3 -999 182 5.4
2007-06-01 06:43:42 51°13.597 2°56.094 126.3 -999 174 7.1
2007-06-01 06:43:47 51°13.597 2°56.094 126.3 -999 222 7.1
2007-06-01 06:43:52 51°13.597 2°56.094 126.3 0.1 185 7.1
2007-06-01 06:43:57 51°13.597 2°56.094 126.3 -999 164 7.1
2007-06-01 06:44:02 51°13.598 2°56.094 126.3 -999 353 7.1
2007-06-01 06:44:07 51°13.598 2°56.094 126.3 -999 357 7.1
2007-06-01 06:44:12 51°13.598 2°56.094 126.3 -999 184 7.1
2007-06-01 06:44:17 51°13.598 2°56.094 126.3 -999 237 7.1
2007-06-01 06:44:22 51°13.598 2°56.094 126.3 -999 13 5.3
2007-06-01 06:44:27 51°13.598 2°56.094 126.3 -999 36 7.1
2007-06-01 06:44:32 51°13.598 2°56.094 126.3 -999 350 7.1
2007-06-01 06:44:37 51°13.598 2°56.094 126.3 -999 348 7.1
2007-06-01 06:44:42 51°13.598 2°56.094 126.3 -999 14 7.1
2007-06-01 06:44:47 51°13.598 2°56.094 126.3 -999 184 7.1
2007-06-01 06:44:52 51°13.598 2°56.094 126.3 -999 202 7.1
2007-06-01 06:44:57 51°13.598 2°56.094 126.3 -999 182 5.4
2007-06-01 06:45:02 51°13.598 2°56.094 126.3 -999 111 7.1
2007-06-01 06:45:07 51°13.598 2°56.094 126.3 -999 310 7.1
2007-06-01 06:45:12 51°13.598 2°56.094 126.3 -999 4 7.1
2007-06-01 06:45:17 51°13.598 2°56.094 126.3 -999 10 7.1
2007-06-01 06:45:22 51°13.598 2°56.094 126.3 -999 291 5.3
2007-06-01 06:45:27 51°13.598 2°56.094 126.3 -999 344 7.1
2007-06-01 06:45:32 51°13.598 2°56.094 126.3 -999 13 5.3
2007-06-01 06:45:37 51°13.598 2°56.094 126.3 -999 175 7.1
2007-06-01 06:45:42 51°13.598 2°56.094 126.3 -999 185 7.1
2007-06-01 06:45:47 51°13.598 2°56.094 126.3 -999 166 7.1
2007-06-01 06:45:52 51°13.598 2°56.094 126.3 -999 10 7.1
2007-06-01 06:45:57 51°13.599 2°56.094 126.3 -999 326 7.1
2007-06-01 06:46:02 51°13.599 2°56.094 126.3 -999 292 7.1
2007-06-01 06:46:07 51°13.599 2°56.094 126.3 -999 78 5.3
2007-06-01 06:46:12 51°13.599 2°56.094 126.3 -999 147 7.1
2007-06-01 06:46:17 51°13.599 2°56.094 126.3 -999 169 7.1
2007-06-01 06:46:22 51°13.599 2°56.094 126.3 -999 69 7.1
2007-06-01 06:46:27 51°13.599 2°56.094 126.3 -999 347 7.1
2007-06-01 06:46:32 51°13.599 2°56.094 126.3 -999 176 7.1
2007-06-01 06:46:37 51°13.599 2°56.094 126.3 -999 4 7.1
2007-06-01 06:46:42 51°13.599 2°56.094 126.3 -999 348 5.3
2007-06-01 06:46:47 51°13.599 2°56.094 126.3 -999 153 7.1
2007-06-01 06:46:52 51°13.599 2°56.094 126.3 -999 224 7.1
2007-06-01 06:46:57 51°13.599 2°56.094 126.3 -999 194 7.1
2007-06-01 06:47:02 51°13.599 2°56.094 126.3 -999 328 7.1
2007-06-01 06:47:07 51°13.599 2°56.094 126.3 -999 164 7.1
2007-06-01 06:47:12 51°13.599 2°56.094 126.3 -999 26 7.1
2007-06-01 06:47:17 51°13.599 2°56.094 126.3 -999 5 5.3
2007-06-01 06:47:22 51°13.598 2°56.094 126.3 -999 182 7.1
2007-06-01 06:47:27 51°13.598 2°56.095 126.3 -999 160 7.1
2007-06-01 06:47:32 51°13.598 2°56.095 126.3 -999 5 7.1
2007-06-01 06:47:37 51°13.598 2°56.095 126.3 -999 162 7.1
2007-06-01 06:47:42 51°13.598 2°56.095 126.3 -999 303 7.1
2007-06-01 06:47:47 51°13.599 2°56.095 126.3 -999 331 7.1
2007-06-01 06:47:52 51°13.599 2°56.095 126.3 -999 34 5.4
2007-06-01 06:47:57 51°13.598 2°56.095 126.3 -999 66 7.1
2007-06-01 06:48:02 51°13.598 2°56.095 126.3 -999 10 7.1
2007-06-01 06:48:07 51°13.598 2°56.095 126.3 -999 345 7.1
2007-06-01 06:48:12 51°13.598 2°56.095 126.3 -999 148 7.1
2007-06-01 06:48:17 51°13.598 2°56.095 126.3 -999 353 7.1
2007-06-01 06:48:22 51°13.598 2°56.095 126.3 -999 316 7.1
2007-06-01 06:48:27 51°13.598 2°56.095 126.3 -999 67 5.3
2007-06-01 06:48:32 51°13.599 2°56.094 126.3 -999 338 7.1
2007-06-01 06:48:37 51°13.599 2°56.094 126.3 -999 275 7.1
2007-06-01 06:48:42 51°13.599 2°56.094 126.3 -999 214 7.1
2007-06-01 06:48:47 51°13.599 2°56.094 126.3 -999 20 7.1
2007-06-01 06:48:52 51°13.599 2°56.094 126.3 -999 233 7.1
2007-06-01 06:48:57 51°13.599 2°56.094 126.3 -999 303 7.1
2007-06-01 06:49:02 51°13.599 2°56.094 126.4 -999 87 5.4
2007-06-01 06:49:07 51°13.599 2°56.094 126.4 -999 161 7.1
2007-06-01 06:49:12 51°13.599 2°56.094 126.4 -999 193 7.1
2007-06-01 06:49:17 51°13.599 2°56.094 126.4 -999 182 7.1
2007-06-01 06:49:22 51°13.599 2°56.094 126.4 -999 110 7.1
2007-06-01 06:49:27 51°13.599 2°56.094 126.4 -999 159 7.1
2007-06-01 06:49:32 51°13.599 2°56.094 126.4 -999 5 7.1
2007-06-01 06:49:37 51°13.599 2°56.094 126.4 -999 174 5.4
2007-06-01 06:49:42 51°13.599 2°56.094 126.4 -999 37 7.1
2007-06-01 06:49:47 51°13.599 2°56.094 126.4 -999 303 7.1
2007-06-01 06:49:52 51°13.599 2°56.094 126.4 -999 174 7.1
2007-06-01 06:49:57 51°13.599 2°56.094 126.4 -999 231 7.1
2007-06-01 06:50:02 51°13.599 2°56.094 126.4 0.1 179 7.1
2007-06-01 06:50:07 51°13.599 2°56.094 126.4 -999 196 7.1
2007-06-01 06:50:12 51°13.599 2°56.094 126.4 -999 351 5.4
2007-06-01 06:50:17 51°13.599 2°56.094 126.4 -999 219 7.1
2007-06-01 06:50:22 51°13.599 2°56.094 126.4 -999 161 7.2
2007-06-01 06:50:27 51°13.599 2°56.094 126.4 -999 27 7.1
2007-06-01 06:50:32 51°13.599 2°56.094 126.4 -999 329 7.2
2007-06-01 06:50:37 51°13.599 2°56.094 126.4 -999 45 7.1
2007-06-01 06:50:42 51°13.599 2°56.094 126.4 -999 193 7.1
2007-06-01 06:50:47 51°13.599 2°56.094 126.4 -999 339 7.2
2007-06-01 06:50:52 51°13.599 2°56.094 126.4 -999 307 5.4
2007-06-01 06:50:57 51°13.599 2°56.094 126.4 -999 303 7.2
2007-06-01 06:51:02 51°13.599 2°56.094 126.4 -999 212 7.2
2007-06-01 06:51:07 51°13.599 2°56.094 126.3 -999 25 7.2
2007-06-01 06:51:12 51°13.599 2°56.094 126.3 -999 5 7.2
2007-06-01 06:51:17 51°13.599 2°56.094 126.3 -999 31 7.1
2007-06-01 06:51:22 51°13.599 2°56.094 126.3 -999 158 7.1
2007-06-01 06:51:27 51°13.599 2°56.094 126.3 -999 326 5.3
2007-06-01 06:51:32 51°13.598 2°56.094 126.3 -999 230 7.1
2007-06-01 06:51:37 51°13.598 2°56.094 126.4 -999 15 7.1
2007-06-01 06:51:42 51°13.598 2°56.094 126.4 -999 70 7.1
2007-06-01 06:51:47 51°13.598 2°56.093 126.4 -999 107 7.1
2007-06-01 06:51:52 51°13.599 2°56.094 126.4 -999 274 7.2
2007-06-01 06:51:57 51°13.599 2°56.094 126.4 -999 283 7.2
2007-06-01 06:52:02 51°13.599 2°56.094 126.5 -999 293 7.2
2007-06-01 06:52:07 51°13.599 2°56.094 126.4 -999 103 7.2
2007-06-01 06:52:12 51°13.599 2°56.094 126.3 0.1 147 5.4
2007-06-01 06:52:17 51°13.599 2°56.094 126.3 -999 215 7.2
2007-06-01 06:52:22 51°13.599 2°56.094 126.3 -999 260 7.1
2007-06-01 06:52:27 51°13.599 2°56.094 126.4 -999 294 7.2
2007-06-01 06:52:32 51°13.599 2°56.094 126.4 -999 166 7.1
2007-06-01 06:52:37 51°13.599 2°56.094 126.4 -999 144 7.1
2007-06-01 06:52:42 51°13.599 2°56.094 126.3 -999 350 7.1
2007-06-01 06:52:47 51°13.599 2°56.094 126.3 -999 187 7.1
2007-06-01 06:52:52 51°13.599 2°56.094 126.3 -999 203 7.1
2007-06-01 06:52:57 51°13.599 2°56.094 126.3 0.1 182 7.1
2007-06-01 06:53:02 51°13.599 2°56.094 126.4 0.1 188 7.1
2007-06-01 06:53:07 51°13.599 2°56.094 126.7 -999 130 7.1
2007-06-01 06:53:12 51°13.598 2°56.094 126.8 -999 148 7.1
2007-06-01 06:53:17 51°13.597 2°56.094 126.8 -999 357 7.2
2007-06-01 06:53:22 51°13.597 2°56.095 126.8 -999 342 5.4
2007-06-01 06:53:27 51°13.597 2°56.095 126.6 -999 74 7.2
2007-06-01 06:53:32 51°13.597 2°56.095 126.4 -999 91 7.1
2007-06-01 06:53:37 51°13.597 2°56.095 126.2 -999 52 7.2
2007-06-01 06:53:42 51°13.597 2°56.094 126.2 -999 319 7.2
2007-06-01 06:53:47 51°13.598 2°56.094 126.2 0.1 332 7.1
2007-06-01 06:53:52 51°13.598 2°56.094 126.2 0.1 343 7.1
2007-06-01 06:53:57 51°13.598 2°56.094 126.2 -999 147 5.3
2007-06-01 06:54:02 51°13.598 2°56.094 126.4 0.1 155 7.1
2007-06-01 06:54:07 51°13.598 2°56.094 126.7 0.1 133 7.1
2007-06-01 06:54:12 51°13.598 2°56.094 126.9 -999 123 7.1
2007-06-01 06:54:17 51°13.597 2°56.095 127 -999 341 7.1
2007-06-01 06:54:22 51°13.596 2°56.095 127 -999 334 7.1
2007-06-01 06:54:27 51°13.596 2°56.095 127 -999 261 7.2
2007-06-01 06:54:32 51°13.595 2°56.094 127 0.1 269 7.2
2007-06-01 06:54:37 51°13.595 2°56.094 127.2 0.1 205 7.2
2007-06-01 06:54:42 51°13.595 2°56.094 127.3 -999 199 7.2
2007-06-01 06:54:47 51°13.595 2°56.094 127.6 -999 298 7.1
2007-06-01 06:54:52 51°13.596 2°56.094 127.8 -999 106 5.4
2007-06-01 06:54:57 51°13.596 2°56.094 128 0.1 135 7.1
2007-06-01 06:55:02 51°13.596 2°56.094 128 0.1 104 5.3
2007-06-01 06:55:07 51°13.597 2°56.094 128 -999 47 7.1
2007-06-01 06:55:12 51°13.598 2°56.094 128 -999 26 5.3
2007-06-01 06:55:17 51°13.598 2°56.094 127.5 -999 168 7.1
2007-06-01 06:55:22 51°13.598 2°56.094 127 0.1 186 7.1
2007-06-01 06:55:27 51°13.598 2°56.094 126.2 0.1 30 7.1
2007-06-01 06:55:32 51°13.598 2°56.094 125.4 -999 179 7.1
2007-06-01 06:55:37 51°13.598 2°56.094 124.2 -999 179 7.1
2007-06-01 06:55:42 51°13.597 2°56.094 123.2 0.1 184 7.1
2007-06-01 06:55:47 51°13.597 2°56.094 122.4 0.1 131 7.2
2007-06-01 06:55:52 51°13.597 2°56.094 121.7 0.1 147 7.1
2007-06-01 06:55:57 51°13.597 2°56.095 121.1 0.1 161 5.4
2007-06-01 06:56:02 51°13.597 2°56.095 120.2 -999 186 7.1
2007-06-01 06:56:07 51°13.597 2°56.095 119.3 0.1 204 -999
2007-06-01 06:56:12 51°13.597 2°56.095 118.3 0.1 172 7.1
2007-06-01 06:56:17 51°13.597 2°56.094 117.3 0.1 190 7.1
2007-06-01 06:56:22 51°13.597 2°56.094 116.3 -999 226 7.1
2007-06-01 06:56:27 51°13.597 2°56.094 115.2 0.1 267 7.1
2007-06-01 06:56:32 51°13.597 2°56.094 114.5 0.2 292 7.1
2007-06-01 06:56:37 51°13.597 2°56.093 113.9 0.4 288 7.1
2007-06-01 06:56:42 51°13.597 2°56.091 113.5 0.8 291 7.1
2007-06-01 06:56:47 51°13.598 2°56.089 113.3 1.2 295 7.2
2007-06-01 06:56:52 51°13.599 2°56.085 113.3 1.7 293 5.4
2007-06-01 06:56:57 51°13.6 2°56.081 113.9 2.3 295 7.3
2007-06-01 06:57:02 51°13.602 2°56.075 114.5 2.9 295 -999
2007-06-01 06:57:07 51°13.604 2°56.069 115 3.3 295 -999
2007-06-01 06:57:12 51°13.606 2°56.061 115.3 3.5 294 -999
2007-06-01 06:57:17 51°13.608 2°56.054 115.4 3.7 294 -999
2007-06-01 06:57:22 51°13.61 2°56.046 115.4 3.8 294 -999
2007-06-01 06:57:27 51°13.612 2°56.039 115.5 3.9 294 -999
2007-06-01 06:57:32 51°13.614 2°56.031 115.7 4 293 -999
2007-06-01 06:57:37 51°13.617 2°56.022 115.9 4.1 294 -999
2007-06-01 06:57:42 51°13.619 2°56.014 116.1 4.2 294 -999
2007-06-01 06:57:47 51°13.621 2°56.005 116.6 4.3 294 -999
2007-06-01 06:57:52 51°13.624 2°55.996 117.2 4.4 295 -999
2007-06-01 06:57:57 51°13.627 2°55.987 117.9 4.5 296 -999
2007-06-01 06:58:02 51°13.629 2°55.978 118.7 4.5 296 -999
2007-06-01 06:58:07 51°13.632 2°55.969 119.5 4.6 296 -999
2007-06-01 06:58:12 51°13.635 2°55.96 120.4 4.6 298 -999
2007-06-01 06:58:17 51°13.638 2°55.951 121.5 4.7 298 -999
2007-06-01 06:58:22 51°13.642 2°55.941 122.4 4.9 300 -999
2007-06-01 06:58:27 51°13.645 2°55.932 123.4 5.1 300 -999
2007-06-01 06:58:32 51°13.649 2°55.922 124.5 5.2 301 -999
2007-06-01 06:58:37 51°13.653 2°55.911 125.4 5.4 302 -999
2007-06-01 06:58:42 51°13.657 2°55.901 126.2 5.6 303 -999
2007-06-01 06:58:47 51°13.662 2°55.891 127.2 5.7 304 -999
2007-06-01 06:58:52 51°13.666 2°55.881 128 5.7 305 -999
2007-06-01 06:58:57 51°13.671 2°55.87 128.6 5.8 305 -999
2007-06-01 06:59:02 51°13.676 2°55.86 129.1 5.9 306 -999
2007-06-01 06:59:07 51°13.681 2°55.849 129.7 5.9 307 -999
2007-06-01 06:59:12 51°13.686 2°55.838 130.2 6 307 -999
2007-06-01 06:59:17 51°13.691 2°55.828 130.7 6.1 308 -999
2007-06-01 06:59:22 51°13.696 2°55.817 131.3 6.1 308 -999
2007-06-01 06:59:27 51°13.701 2°55.807 132 6.1 309 -999
2007-06-01 06:59:32 51°13.707 2°55.796 132.6 6.2 310 -999
2007-06-01 06:59:37 51°13.713 2°55.786 133.3 6.2 310 -999
2007-06-01 06:59:42 51°13.718 2°55.776 134.3 6.3 311 -999
2007-06-01 06:59:47 51°13.724 2°55.765 135.6 6.3 312 -999
2007-06-01 06:59:52 51°13.73 2°55.755 137.1 6.3 314 -999
2007-06-01 06:59:57 51°13.737 2°55.745 138.6 6.3 315 -999
2007-06-01 07:00:02 51°13.743 2°55.736 140.3 6.3 317 -999
2007-06-01 07:00:07 51°13.75 2°55.726 141.9 6.4 318 -999
2007-06-01 07:00:12 51°13.756 2°55.717 143.2 6.4 320 -999
2007-06-01 07:00:17 51°13.763 2°55.708 144.4 6.4 320 -999
2007-06-01 07:00:22 51°13.77 2°55.699 145.7 6.5 322 -999
2007-06-01 07:00:27 51°13.777 2°55.69 146.8 6.5 322 -999
2007-06-01 07:00:32 51°13.785 2°55.682 148.7 6.6 325 -999
2007-06-01 07:00:37 51°13.792 2°55.674 150.7 6.6 327 -999
2007-06-01 07:00:42 51°13.8 2°55.666 153 6.6 329 -999
2007-06-01 07:00:47 51°13.808 2°55.659 155.4 6.7 331 -999
2007-06-01 07:00:52 51°13.816 2°55.653 157.7 6.7 334 -999
2007-06-01 07:00:57 51°13.825 2°55.647 160.2 6.6 336 -999
2007-06-01 07:01:02 51°13.833 2°55.642 163.2 6.4 339 -999
2007-06-01 07:01:07 51°13.841 2°55.637 166.2 6.3 342 -999
2007-06-01 07:01:12 51°13.849 2°55.634 169.5 6.1 344 -999
2007-06-01 07:01:17 51°13.858 2°55.631 172.9 6 348 -999
2007-06-01 07:01:22 51°13.866 2°55.629 176.7 5.9 351 -999
2007-06-01 07:01:27 51°13.874 2°55.628 180.6 5.7 355 -999
2007-06-01 07:01:32 51°13.881 2°55.628 184.7 5.7 359 -999
2007-06-01 07:01:37 51°13.889 2°55.629 188.9 5.6 4 -999
2007-06-01 07:01:42 51°13.896 2°55.63 192.8 5.4 7 -999
2007-06-01 07:01:47 51°13.904 2°55.632 196.5 5.2 10 -999
2007-06-01 07:01:52 51°13.91 2°55.635 199.8 5 13 -999
2007-06-01 07:01:57 51°13.917 2°55.638 203 4.8 16 -999
2007-06-01 07:02:02 51°13.923 2°55.641 206.1 4.6 18 -999
2007-06-01 07:02:07 51°13.929 2°55.644 209.1 4.4 22 -999
2007-06-01 07:02:12 51°13.934 2°55.648 212 4.2 23 -999
2007-06-01 07:02:17 51°13.939 2°55.652 214.7 4 26 -999
2007-06-01 07:02:22 51°13.944 2°55.656 217.3 3.7 27 -999
2007-06-01 07:02:27 51°13.948 2°55.66 219.4 3.5 31 -999
2007-06-01 07:02:32 51°13.951 2°55.663 221.6 3.1 32 9.5
2007-06-01 07:02:37 51°13.954 2°55.667 224.1 2.4 34 9.5
2007-06-01 07:02:42 51°13.956 2°55.668 226.9 1.5 30 9.8
2007-06-01 07:02:47 51°13.957 2°55.668 230.6 0.6 358 9.9
2007-06-01 07:02:52 51°13.957 2°55.666 236 0.9 283 9.8
2007-06-01 07:02:57 51°13.956 2°55.662 243.4 1.7 264 9.8
2007-06-01 07:03:02 51°13.956 2°55.657 251.9 2.6 268 9.8
2007-06-01 07:03:07 51°13.956 2°55.649 261.5 3.5 273 9.6
2007-06-01 07:03:12 51°13.957 2°55.64 268.5 4.2 275 9.9
2007-06-01 07:03:17 51°13.958 2°55.629 273.1 4.9 280 9.6
2007-06-01 07:03:22 51°13.96 2°55.617 279.4 5.6 286 9.5
2007-06-01 07:03:27 51°13.963 2°55.605 285.6 5.8 289 9.6
2007-06-01 07:03:32 51°13.966 2°55.593 290.3 5.8 295 9.5
2007-06-01 07:03:37 51°13.97 2°55.582 295.1 5.8 300 9.7
2007-06-01 07:03:42 51°13.975 2°55.572 300.4 5.9 306 9.8
2007-06-01 07:03:47 51°13.981 2°55.561 306.2 6 309 9.5
2007-06-01 07:03:52 51°13.987 2°55.552 310.9 6 314 9.9
2007-06-01 07:03:57 51°13.993 2°55.542 315.4 6.1 317 9.9
2007-06-01 07:04:02 51°14 2°55.534 320.3 6.2 320 10
2007-06-01 07:04:07 51°14.007 2°55.525 322.9 6.2 322 10
2007-06-01 07:04:12 51°14.014 2°55.518 325.6 6.2 325 10.1
2007-06-01 07:04:17 51°14.021 2°55.51 328.7 6.3 327 10.1
2007-06-01 07:04:22 51°14.029 2°55.503 330.9 6.4 330 10
2007-06-01 07:04:27 51°14.037 2°55.496 333.1 6.4 330 10.1
2007-06-01 07:04:32 51°14.044 2°55.489 334.2 6.5 331 10.1
2007-06-01 07:04:37 51°14.052 2°55.482 334.9 6.5 332 10.1
2007-06-01 07:04:42 51°14.06 2°55.475 335.5 6.6 333 10.1
2007-06-01 07:04:47 51°14.069 2°55.469 336.6 6.5 335 10.1
2007-06-01 07:04:52 51°14.077 2°55.463 338.5 6.6 335 10.1
2007-06-01 07:04:57 51°14.085 2°55.457 339.4 6.6 335 10.1
2007-06-01 07:05:02 51°14.094 2°55.45 339.6 6.6 334 10.1
2007-06-01 07:05:07 51°14.102 2°55.444 339.5 6.7 335 10.1
2007-06-01 07:05:12 51°14.111 2°55.438 339.2 6.7 334 10.2
2007-06-01 07:05:17 51°14.119 2°55.431 338.8 6.7 335 10.2
2007-06-01 07:05:22 51°14.128 2°55.425 338.7 6.7 334 10.1
2007-06-01 07:05:27 51°14.136 2°55.418 338.6 6.7 334 10.1
2007-06-01 07:05:32 51°14.144 2°55.412 338.2 6.7 334 -999
2007-06-01 07:05:37 51°14.153 2°55.405 337.8 7 334 10.1
2007-06-01 07:05:42 51°14.162 2°55.398 337.5 7.4 333 10.1
2007-06-01 07:05:47 51°14.172 2°55.389 337 7.8 332 10.1
2007-06-01 07:05:52 51°14.182 2°55.381 336.2 8.3 331 10.1
2007-06-01 07:05:57 51°14.192 2°55.371 335.3 8.8 330 -999
2007-06-01 07:06:02 51°14.203 2°55.36 334.5 9.2 329 10
2007-06-01 07:06:07 51°14.214 2°55.348 333.4 9.6 327 10
2007-06-01 07:06:12 51°14.226 2°55.336 332.1 9.9 324 -999
2007-06-01 07:06:17 51°14.237 2°55.322 329.9 10.2 321 9.9
2007-06-01 07:06:22 51°14.247 2°55.306 326.2 10.5 318 -999
2007-06-01 07:06:27 51°14.258 2°55.29 322.8 10.7 316 9.8
2007-06-01 07:06:32 51°14.268 2°55.272 320.8 10.9 314 9.8
2007-06-01 07:06:37 51°14.279 2°55.254 319 11.2 311 -999
2007-06-01 07:06:42 51°14.289 2°55.234 316.4 11.4 310 -999
2007-06-01 07:06:47 51°14.299 2°55.214 315.2 11.6 308 9.8
2007-06-01 07:06:52 51°14.308 2°55.193 313.1 11.7 305 9.8
2007-06-01 07:06:57 51°14.317 2°55.172 310.5 11.8 306 9.9
2007-06-01 07:07:02 51°14.327 2°55.15 309.8 12 306 9.9
2007-06-01 07:07:07 51°14.337 2°55.129 310 12.1 308 10
2007-06-01 07:07:12 51°14.348 2°55.108 311.1 12.3 309 10.1
2007-06-01 07:07:17 51°14.359 2°55.087 312.6 12.4 310 10.1
2007-06-01 07:07:22 51°14.37 2°55.065 313.7 12.5 309 9.6
2007-06-01 07:07:27 51°14.381 2°55.044 313.5 12.6 309 9.7
2007-06-01 07:07:32 51°14.392 2°55.022 313.3 12.7 309 9.7
2007-06-01 07:07:37 51°14.403 2°55 313 12.9 308 9.7
2007-06-01 07:07:42 51°14.415 2°54.979 313.1 13.1 312 9.7
2007-06-01 07:07:47 51°14.428 2°54.957 315.5 13.2 312 9.6
2007-06-01 07:07:52 51°14.441 2°54.936 317.5 13.3 314 9.6
2007-06-01 07:07:57 51°14.454 2°54.915 319.3 13.4 314 9.7
2007-06-01 07:08:02 51°14.467 2°54.894 320.8 13.4 316 9.5
2007-06-01 07:08:07 51°14.48 2°54.874 323.1 13.3 316 9.2
2007-06-01 07:08:12 51°14.494 2°54.854 324.4 13.3 318 8.8
2007-06-01 07:08:17 51°14.508 2°54.835 326.1 13.2 319 8.7
2007-06-01 07:08:22 51°14.522 2°54.817 327.8 13.2 321 8.5
2007-06-01 07:08:27 51°14.536 2°54.799 329.2 13.1 323 8.4
2007-06-01 07:08:32 51°14.551 2°54.782 331.4 13.1 325 8.3
2007-06-01 07:08:37 51°14.566 2°54.766 333.1 13.1 327 8.3
2007-06-01 07:08:42 51°14.581 2°54.751 335.1 13 328 8.3
2007-06-01 07:08:47 51°14.596 2°54.736 336.5 12.9 329 8.3
2007-06-01 07:08:52 51°14.612 2°54.722 337.5 12.9 328 8.2
2007-06-01 07:08:57 51°14.627 2°54.707 338 13 329 8.3
2007-06-01 07:09:02 51°14.643 2°54.692 338.4 13 329 8.2
2007-06-01 07:09:07 51°14.658 2°54.677 338.7 13 328 8.1
2007-06-01 07:09:12 51°14.673 2°54.661 338.1 13.1 327 8.1
2007-06-01 07:09:17 51°14.688 2°54.645 337.1 13.1 326 8.3
2007-06-01 07:09:22 51°14.703 2°54.628 336 13.2 325 8.3
2007-06-01 07:09:27 51°14.718 2°54.611 334.6 13.2 324 8.4
2007-06-01 07:09:32 51°14.732 2°54.593 333.5 13.1 323 8.3
2007-06-01 07:09:37 51°14.747 2°54.575 332.5 13.1 323 8.4
2007-06-01 07:09:42 51°14.761 2°54.557 331.9 13.2 322 8.3
2007-06-01 07:09:47 51°14.775 2°54.54 331.3 13.2 322 8.4
2007-06-01 07:09:52 51°14.79 2°54.522 331.2 13.2 322 8.5
2007-06-01 07:09:57 51°14.804 2°54.504 330.9 13.1 323 8.2
2007-06-01 07:10:02 51°14.819 2°54.486 331 13.1 323 8.2
2007-06-01 07:10:07 51°14.833 2°54.47 331.4 13 324 8
2007-06-01 07:10:12 51°14.848 2°54.453 332.1 13.1 325 8.5
2007-06-01 07:10:17 51°14.863 2°54.437 332.9 13.1 326 8.3
2007-06-01 07:10:22 51°14.878 2°54.421 333.8 13.1 327 8.5
2007-06-01 07:10:27 51°14.893 2°54.405 334.7 13.1 327 8.2
2007-06-01 07:10:32 51°14.909 2°54.389 335.3 13 327 8
2007-06-01 07:10:37 51°14.924 2°54.374 335.5 12.9 327 7.9
2007-06-01 07:10:42 51°14.938 2°54.358 335.8 12.9 326 7.8
2007-06-01 07:10:47 51°14.953 2°54.342 335.1 12.8 325 7.6
2007-06-01 07:10:52 51°14.967 2°54.326 334.4 12.7 325 7.4
2007-06-01 07:10:57 51°14.982 2°54.309 333.9 12.6 324 7.3
2007-06-01 07:11:02 51°14.996 2°54.292 333.2 12.6 323 7.4
2007-06-01 07:11:07 51°15.009 2°54.275 332.4 12.6 321 5.4
2007-06-01 07:11:12 51°15.022 2°54.256 330.8 12.6 319 7.3
2007-06-01 07:11:17 51°15.035 2°54.237 329.2 12.7 318 7.3
2007-06-01 07:11:22 51°15.048 2°54.218 328 12.8 317 7.3
2007-06-01 07:11:27 51°15.061 2°54.198 327.1 12.8 317 7.3
2007-06-01 07:11:32 51°15.074 2°54.179 326.8 12.9 317 5.5
2007-06-01 07:11:37 51°15.087 2°54.16 326.7 12.9 318 7.4
2007-06-01 07:11:42 51°15.1 2°54.141 327.3 12.8 319 7.4
2007-06-01 07:11:47 51°15.114 2°54.123 328.1 12.9 320 7.4
2007-06-01 07:11:52 51°15.128 2°54.106 328.8 12.9 323 5.6
2007-06-01 07:11:57 51°15.143 2°54.09 331.5 12.8 326 7.6
2007-06-01 07:12:02 51°15.158 2°54.075 334.4 12.8 328 7.8
2007-06-01 07:12:07 51°15.174 2°54.061 336.8 12.7 330 7.7
2007-06-01 07:12:12 51°15.189 2°54.048 338.7 12.7 332 7.8
2007-06-01 07:12:17 51°15.205 2°54.035 340.9 12.7 332 7.8
2007-06-01 07:12:22 51°15.221 2°54.022 341.8 12.7 334 8
2007-06-01 07:12:27 51°15.236 2°54.009 343 12.8 333 8
2007-06-01 07:12:32 51°15.252 2°53.997 343.3 12.8 334 8
2007-06-01 07:12:37 51°15.268 2°53.984 343.5 12.9 333 8.1
2007-06-01 07:12:42 51°15.284 2°53.971 343.2 12.9 333 8.2
2007-06-01 07:12:47 51°15.3 2°53.957 342.8 13 331 8.2
2007-06-01 07:12:52 51°15.315 2°53.942 341.3 13 329 8.3
2007-06-01 07:12:57 51°15.33 2°53.927 339.3 13 327 8.4
2007-06-01 07:13:02 51°15.345 2°53.91 337.5 13.1 325 8.5
2007-06-01 07:13:07 51°15.36 2°53.893 335.1 13.1 324 8.4
2007-06-01 07:13:12 51°15.375 2°53.875 333.6 13.1 323 8.4
2007-06-01 07:13:17 51°15.389 2°53.857 332.6 13.2 322 8.5
2007-06-01 07:13:22 51°15.403 2°53.839 331.8 13.1 321 8.6
2007-06-01 07:13:27 51°15.417 2°53.821 331.3 13.2 321 8.6
2007-06-01 07:13:32 51°15.432 2°53.802 330.9 13.2 321 8.7
2007-06-01 07:13:37 51°15.446 2°53.784 330.9 13.2 322 8.7
2007-06-01 07:13:42 51°15.461 2°53.766 331.6 13.2 323 8.9
2007-06-01 07:13:47 51°15.475 2°53.749 332.3 13.2 324 8.9
2007-06-01 07:13:52 51°15.49 2°53.732 333.4 13.2 324 9
2007-06-01 07:13:57 51°15.505 2°53.715 334.3 13.2 325 9
2007-06-01 07:14:02 51°15.52 2°53.699 335.3 13.2 325 9
2007-06-01 07:14:07 51°15.535 2°53.683 335.9 13.1 327 9.1
2007-06-01 07:14:12 51°15.55 2°53.667 336.4 13.1 326 9.1
2007-06-01 07:14:17 51°15.566 2°53.651 336.9 13.1 327 9.2
2007-06-01 07:14:22 51°15.581 2°53.634 337.1 13.1 326 9.2
2007-06-01 07:14:27 51°15.596 2°53.618 337 13.1 326 9.2
2007-06-01 07:14:32 51°15.611 2°53.602 336.6 13.1 325 9.4
2007-06-01 07:14:37 51°15.626 2°53.585 336.1 13.2 325 9.4
2007-06-01 07:14:42 51°15.641 2°53.568 335.8 13.2 325 9.4
2007-06-01 07:14:47 51°15.656 2°53.552 335.3 13.2 325 9.4
2007-06-01 07:14:52 51°15.671 2°53.535 335.2 13.2 325 9.5
2007-06-01 07:14:57 51°15.686 2°53.518 334.9 13.1 325 9.5
2007-06-01 07:15:02 51°15.701 2°53.502 334.9 13.1 325 9.7
2007-06-01 07:15:07 51°15.716 2°53.485 335.3 13.1 326 9.7
2007-06-01 07:15:12 51°15.731 2°53.469 335.4 13.1 326 9.8
2007-06-01 07:15:17 51°15.746 2°53.453 335.7 13.1 326 9.8
2007-06-01 07:15:22 51°15.761 2°53.437 336 13.1 327 9.8
2007-06-01 07:15:27 51°15.776 2°53.421 336 13.1 326 9.8
2007-06-01 07:15:32 51°15.792 2°53.406 336.4 13.1 328 9.9
2007-06-01 07:15:37 51°15.807 2°53.39 337.1 13.1 328 10
2007-06-01 07:15:42 51°15.822 2°53.375 337.7 13 329 10
2007-06-01 07:15:47 51°15.838 2°53.36 338.6 13 329 10
2007-06-01 07:15:52 51°15.853 2°53.346 338.9 13 330 10.1
2007-06-01 07:15:57 51°15.869 2°53.331 339.2 13 329 10.1
2007-06-01 07:16:02 51°15.884 2°53.316 339.3 13 329 10.1
2007-06-01 07:16:07 51°15.9 2°53.301 339.3 13 328 10.2
2007-06-01 07:16:12 51°15.915 2°53.286 338.9 13 328 10.3
2007-06-01 07:16:17 51°15.93 2°53.271 338.8 13 328 10.3
2007-06-01 07:16:22 51°15.946 2°53.255 338.6 13 328 10.3
2007-06-01 07:16:27 51°15.961 2°53.24 338.2 13 328 10.3
2007-06-01 07:16:32 51°15.976 2°53.225 338.1 13 328 10.3
2007-06-01 07:16:37 51°15.991 2°53.21 337.9 13 328 10.4
2007-06-01 07:16:42 51°16.007 2°53.194 337.8 13 328 10.4
2007-06-01 07:16:47 51°16.022 2°53.18 338.2 12.9 330 10.4
2007-06-01 07:16:52 51°16.038 2°53.166 339.3 13 330 10.5
2007-06-01 07:16:57 51°16.054 2°53.152 340.2 12.9 332 10.5
2007-06-01 07:17:02 51°16.069 2°53.139 341.1 12.9 332 10.5
2007-06-01 07:17:07 51°16.085 2°53.125 341.7 12.9 332 10.5
2007-06-01 07:17:12 51°16.101 2°53.112 342 12.9 332 10.6
2007-06-01 07:17:17 51°16.117 2°53.099 342.3 12.9 332 10.6
2007-06-01 07:17:22 51°16.133 2°53.085 342.4 12.8 332 10.6
2007-06-01 07:17:27 51°16.149 2°53.072 342.1 12.9 333 10.7
2007-06-01 07:17:32 51°16.164 2°53.059 342.3 12.9 333 10.6
2007-06-01 07:17:37 51°16.181 2°53.046 342.7 12.9 334 10.6
2007-06-01 07:17:42 51°16.197 2°53.034 343.4 12.9 333 10.7
2007-06-01 07:17:47 51°16.213 2°53.021 343.6 12.8 334 10.7
2007-06-01 07:17:52 51°16.229 2°53.009 344 12.9 334 10.7
2007-06-01 07:17:57 51°16.245 2°52.996 344 12.8 334 10.7
2007-06-01 07:18:02 51°16.261 2°52.983 344 12.9 333 10.7
2007-06-01 07:18:07 51°16.277 2°52.971 343.9 12.9 333 10.7
2007-06-01 07:18:12 51°16.293 2°52.958 343.8 12.8 333 10.7
2007-06-01 07:18:17 51°16.308 2°52.946 343.6 12.8 334 10.7
2007-06-01 07:18:22 51°16.324 2°52.933 343.5 12.8 334 10.8
2007-06-01 07:18:27 51°16.34 2°52.921 343.5 12.8 334 10.9
2007-06-01 07:18:32 51°16.357 2°52.91 343.6 12.8 337 10.7
2007-06-01 07:18:37 51°16.373 2°52.899 345.4 12.7 338 10.8
2007-06-01 07:18:42 51°16.39 2°52.889 346.5 12.7 339 10.7
2007-06-01 07:18:47 51°16.406 2°52.879 347.4 12.7 340 10.7
2007-06-01 07:18:52 51°16.423 2°52.87 347.9 12.7 340 10.7
2007-06-01 07:18:57 51°16.439 2°52.86 348.5 12.7 340 10.6
2007-06-01 07:19:02 51°16.456 2°52.851 348.7 12.7 340 10.7
2007-06-01 07:19:07 51°16.472 2°52.841 348.3 12.7 340 10.5
2007-06-01 07:19:12 51°16.489 2°52.831 348.1 12.7 340 10.6
2007-06-01 07:19:17 51°16.506 2°52.821 348 12.7 340 10.6
2007-06-01 07:19:22 51°16.522 2°52.812 348 12.7 340 10.6
2007-06-01 07:19:27 51°16.539 2°52.802 347.9 12.8 340 10.5
2007-06-01 07:19:32 51°16.556 2°52.792 347.8 12.8 340 10.4
2007-06-01 07:19:37 51°16.572 2°52.782 347.8 12.7 340 10.4
2007-06-01 07:19:42 51°16.589 2°52.773 347.8 12.7 340 10.4
2007-06-01 07:19:47 51°16.606 2°52.762 347.8 12.7 339 10.3
2007-06-01 07:19:52 51°16.622 2°52.753 347.6 12.7 340 10.2
2007-06-01 07:19:57 51°16.638 2°52.743 347.5 12.7 339 10.1
2007-06-01 07:20:02 51°16.655 2°52.734 347.4 12.6 339 10
2007-06-01 07:20:07 51°16.671 2°52.724 347.3 12.6 339 9.9
2007-06-01 07:20:12 51°16.688 2°52.714 347.2 12.6 340 9.8
2007-06-01 07:20:17 51°16.704 2°52.704 347.3 12.6 340 9.6
2007-06-01 07:20:22 51°16.72 2°52.695 347.7 12.5 340 9.5
2007-06-01 07:20:27 51°16.737 2°52.686 347.9 12.5 340 9.3
2007-06-01 07:20:32 51°16.753 2°52.677 347.9 12.4 340 8.8
2007-06-01 07:20:37 51°16.769 2°52.667 348.1 12.4 340 8.6
2007-06-01 07:20:42 51°16.785 2°52.658 347.8 12.4 339 8.6
2007-06-01 07:20:47 51°16.801 2°52.648 347.6 12.3 340 8.6
2007-06-01 07:20:52 51°16.817 2°52.638 347.5 12.4 339 8.7
2007-06-01 07:20:57 51°16.833 2°52.628 347.4 12.5 339 8.7
2007-06-01 07:21:02 51°16.849 2°52.618 347 12.4 338 8.5
2007-06-01 07:21:07 51°16.865 2°52.608 346.9 12.3 339 8.6
2007-06-01 07:21:12 51°16.881 2°52.598 346.7 12.3 339 8.6
2007-06-01 07:21:17 51°16.897 2°52.588 346.8 12.3 339 8.6
2007-06-01 07:21:22 51°16.913 2°52.578 346.8 12.4 339 8.7
2007-06-01 07:21:27 51°16.93 2°52.569 346.8 12.5 340 8.9
2007-06-01 07:21:32 51°16.946 2°52.559 347.2 12.5 340 8.8
2007-06-01 07:21:37 51°16.962 2°52.55 348 12.5 340 8.8
2007-06-01 07:21:42 51°16.978 2°52.541 348.4 12.4 341 8.7
2007-06-01 07:21:47 51°16.995 2°52.532 348.6 12.4 341 8.5
2007-06-01 07:21:52 51°17.011 2°52.523 348.9 12.3 341 8.5
2007-06-01 07:21:57 51°17.027 2°52.514 349 12.3 340 8.5
2007-06-01 07:22:02 51°17.043 2°52.504 348.5 12.3 340 8.6
2007-06-01 07:22:07 51°17.058 2°52.494 348.1 12.3 338 8.5
2007-06-01 07:22:12 51°17.074 2°52.484 347.3 12.4 338 8.7
2007-06-01 07:22:17 51°17.09 2°52.473 346.7 12.4 337 8.6
2007-06-01 07:22:22 51°17.106 2°52.463 346.2 12.5 338 8.6
2007-06-01 07:22:27 51°17.122 2°52.452 346 12.5 338 8.7
2007-06-01 07:22:32 51°17.138 2°52.442 345.9 12.5 338 8.7
2007-06-01 07:22:37 51°17.154 2°52.432 346.2 12.5 339 8.8
2007-06-01 07:22:42 51°17.171 2°52.422 346.9 12.5 339 8.8
2007-06-01 07:22:47 51°17.187 2°52.412 347.4 12.5 339 8.9
2007-06-01 07:22:52 51°17.203 2°52.403 347.6 12.5 340 9
2007-06-01 07:22:57 51°17.219 2°52.393 347.9 12.5 340 8.9
2007-06-01 07:23:02 51°17.236 2°52.383 348.2 12.5 339 9
2007-06-01 07:23:07 51°17.252 2°52.373 348.2 12.5 339 9.2
2007-06-01 07:23:12 51°17.268 2°52.363 348.1 12.5 338 9.2
2007-06-01 07:23:17 51°17.284 2°52.35 347.2 12.6 334 9.3
2007-06-01 07:23:22 51°17.299 2°52.337 344.3 12.6 332 9.2
2007-06-01 07:23:27 51°17.314 2°52.323 342 12.6 329 9.2
2007-06-01 07:23:32 51°17.329 2°52.308 339.8 12.7 328 9.3
2007-06-01 07:23:37 51°17.343 2°52.292 337.5 12.7 325 9.3
2007-06-01 07:23:42 51°17.358 2°52.275 335 12.7 323 9.4
2007-06-01 07:23:47 51°17.371 2°52.258 333.1 12.8 322 9.4
2007-06-01 07:23:52 51°17.385 2°52.24 331.8 12.8 321 9.3
2007-06-01 07:23:57 51°17.399 2°52.222 330.7 12.8 320 9.3
2007-06-01 07:24:02 51°17.412 2°52.203 329.9 12.8 318 9.4
2007-06-01 07:24:07 51°17.425 2°52.183 328.7 12.8 315 9.4
2007-06-01 07:24:12 51°17.437 2°52.162 326 12.8 313 9.5
2007-06-01 07:24:17 51°17.448 2°52.141 323.8 12.9 311 9.5
2007-06-01 07:24:22 51°17.46 2°52.119 321.9 12.9 308 9.5
2007-06-01 07:24:27 51°17.47 2°52.095 319.1 13 306 9.5
2007-06-01 07:24:32 51°17.481 2°52.072 316.6 13 305 9.4
2007-06-01 07:24:37 51°17.49 2°52.047 314.9 13 303 9.4
2007-06-01 07:24:42 51°17.5 2°52.023 313.2 13.1 303 9.5
2007-06-01 07:24:47 51°17.51 2°51.998 312.4 13.1 302 9.4
2007-06-01 07:24:52 51°17.519 2°51.974 311.7 13.1 301 9.4
2007-06-01 07:24:57 51°17.528 2°51.949 310.9 13.1 302 9.4
2007-06-01 07:25:02 51°17.538 2°51.924 310.6 13.1 301 9.4
2007-06-01 07:25:07 51°17.547 2°51.899 310.6 13.2 301 9.3
2007-06-01 07:25:12 51°17.556 2°51.874 310.4 13.1 301 9.4
2007-06-01 07:25:17 51°17.566 2°51.85 310.4 13.1 302 9.3
2007-06-01 07:25:22 51°17.575 2°51.825 310.7 13.1 301 9.4
2007-06-01 07:25:27 51°17.585 2°51.801 310.8 13.1 302 9.2
2007-06-01 07:25:32 51°17.595 2°51.776 311.2 13 302 9.1
2007-06-01 07:25:37 51°17.604 2°51.752 311.7 13 303 9
2007-06-01 07:25:42 51°17.614 2°51.728 312.2 13 303 9
2007-06-01 07:25:47 51°17.624 2°51.704 312.5 13 303 9
2007-06-01 07:25:52 51°17.634 2°51.679 312.6 13 303 8.9
2007-06-01 07:25:57 51°17.643 2°51.655 312.5 13 303 9
2007-06-01 07:26:02 51°17.653 2°51.631 312.4 13 303 8.8
2007-06-01 07:26:07 51°17.663 2°51.606 312.5 13.1 302 8.9
2007-06-01 07:26:12 51°17.672 2°51.582 312.1 13 302 8.8
2007-06-01 07:26:17 51°17.682 2°51.558 311.9 13 302 8.7
2007-06-01 07:26:22 51°17.692 2°51.534 311.6 13 302 8.7
2007-06-01 07:26:27 51°17.702 2°51.509 311.4 13 302 8.7
2007-06-01 07:26:32 51°17.711 2°51.485 311.2 13 302 8.9
2007-06-01 07:26:37 51°17.721 2°51.46 311.3 13.1 301 8.7
2007-06-01 07:26:42 51°17.729 2°51.434 310.6 13.2 299 8.9
2007-06-01 07:26:47 51°17.738 2°51.408 309.1 13.2 298 8.8
2007-06-01 07:26:52 51°17.746 2°51.382 307.9 13.2 297 8.9
2007-06-01 07:26:57 51°17.754 2°51.356 307 13.2 296 8.9
2007-06-01 07:27:02 51°17.762 2°51.329 305.9 13.3 295 8.9
2007-06-01 07:27:07 51°17.769 2°51.302 304.8 13.3 294 9.1
2007-06-01 07:27:12 51°17.777 2°51.275 304.1 13.4 294 9.1
2007-06-01 07:27:17 51°17.785 2°51.248 303.4 13.4 295 9.2
2007-06-01 07:27:22 51°17.793 2°51.221 303.2 13.4 294 9.2
2007-06-01 07:27:27 51°17.8 2°51.194 303.3 13.5 294 9.4
2007-06-01 07:27:32 51°17.808 2°51.167 303.1 13.5 295 9.6
2007-06-01 07:27:37 51°17.816 2°51.14 303.3 13.5 295 9.6
2007-06-01 07:27:42 51°17.824 2°51.113 304.1 13.6 295 9.8
2007-06-01 07:27:47 51°17.832 2°51.086 304.1 13.6 296 9.7
2007-06-01 07:27:52 51°17.841 2°51.059 304.3 13.6 296 9.9
2007-06-01 07:27:57 51°17.849 2°51.032 304.8 13.6 296 9.8
2007-06-01 07:28:02 51°17.857 2°51.005 304.9 13.6 296 10.3
2007-06-01 07:28:07 51°17.865 2°50.978 304.9 13.6 295 10.3
2007-06-01 07:28:12 51°17.873 2°50.951 304.9 13.7 295 10.5
2007-06-01 07:28:17 51°17.881 2°50.923 304.4 13.7 294 10.4
2007-06-01 07:28:22 51°17.889 2°50.895 304.1 13.7 294 10.9
2007-06-01 07:28:27 51°17.897 2°50.868 303.8 13.7 294 10.9
2007-06-01 07:28:32 51°17.904 2°50.841 303.6 13.6 294 10.8
2007-06-01 07:28:37 51°17.912 2°50.813 303.6 13.6 295 11
2007-06-01 07:28:42 51°17.92 2°50.786 304 13.6 295 11
2007-06-01 07:28:47 51°17.928 2°50.758 304.3 13.6 295 11.3
2007-06-01 07:28:52 51°17.936 2°50.731 304.4 13.7 295 11.5
2007-06-01 07:28:57 51°17.944 2°50.703 304.8 13.6 294 11.6
2007-06-01 07:29:02 51°17.952 2°50.676 304.6 13.6 295 11.6
2007-06-01 07:29:07 51°17.96 2°50.649 304.5 13.6 294 11.7
2007-06-01 07:29:12 51°17.968 2°50.622 304.4 13.6 295 11.8
2007-06-01 07:29:17 51°17.975 2°50.594 304.4 13.6 294 11.6
2007-06-01 07:29:22 51°17.983 2°50.567 304.4 13.6 295 11.8
2007-06-01 07:29:27 51°17.991 2°50.539 304.6 13.6 295 11.9
2007-06-01 07:29:32 51°17.999 2°50.512 304.6 13.6 294 11.8
2007-06-01 07:29:37 51°18.007 2°50.485 304.3 13.6 295 12.1
2007-06-01 07:29:42 51°18.015 2°50.457 304.3 13.6 295 12
2007-06-01 07:29:47 51°18.022 2°50.429 304.2 13.6 295 11.9
2007-06-01 07:29:52 51°18.03 2°50.402 304.7 13.6 295 12.3
2007-06-01 07:29:57 51°18.038 2°50.375 304.8 13.6 295 12.3
2007-06-01 07:30:02 51°18.046 2°50.347 304.8 13.6 295 12.3
2007-06-01 07:30:07 51°18.054 2°50.32 304.8 13.6 295 12.6
2007-06-01 07:30:12 51°18.062 2°50.293 305 13.6 295 12.7
2007-06-01 07:30:17 51°18.07 2°50.266 305.1 13.6 295 12.7
2007-06-01 07:30:22 51°18.078 2°50.238 305.1 13.6 295 12.6
2007-06-01 07:30:27 51°18.086 2°50.211 305.2 13.6 295 12.7
2007-06-01 07:30:32 51°18.094 2°50.184 304.9 13.6 295 12.7
2007-06-01 07:30:37 51°18.102 2°50.157 304.8 13.6 295 12.8
2007-06-01 07:30:42 51°18.11 2°50.129 304.7 13.6 295 12.9
2007-06-01 07:30:47 51°18.117 2°50.102 304.8 13.6 295 12.9
2007-06-01 07:30:52 51°18.125 2°50.074 304.9 13.6 295 12.9
2007-06-01 07:30:57 51°18.133 2°50.047 304.9 13.6 295 13.1
2007-06-01 07:31:02 51°18.141 2°50.019 305.2 13.6 294 12.9
2007-06-01 07:31:07 51°18.149 2°49.992 304.8 13.6 294 13
2007-06-01 07:31:12 51°18.156 2°49.964 304.8 13.6 294 13.1
2007-06-01 07:31:17 51°18.164 2°49.937 304.6 13.6 294 13
2007-06-01 07:31:22 51°18.172 2°49.909 304.6 13.6 294 13
2007-06-01 07:31:27 51°18.18 2°49.882 304.5 13.6 294 12.8
2007-06-01 07:31:32 51°18.187 2°49.855 304.5 13.6 295 12.8
2007-06-01 07:31:37 51°18.195 2°49.827 304.4 13.6 295 13
2007-06-01 07:31:42 51°18.203 2°49.8 304.5 13.6 295 12.8
2007-06-01 07:31:47 51°18.211 2°49.773 304.9 13.6 295 12.9
2007-06-01 07:31:52 51°18.219 2°49.745 305 13.6 294 12.7
2007-06-01 07:31:57 51°18.227 2°49.718 304.8 13.6 295 12.8
2007-06-01 07:32:02 51°18.234 2°49.691 304.6 13.6 294 12.7
2007-06-01 07:32:07 51°18.242 2°49.664 304.7 13.5 295 12.6
2007-06-01 07:32:12 51°18.25 2°49.636 304.8 13.5 295 12.6
2007-06-01 07:32:17 51°18.258 2°49.61 305.1 13.6 295 12.4
2007-06-01 07:32:22 51°18.266 2°49.583 305.2 13.6 295 12.2
2007-06-01 07:32:27 51°18.274 2°49.556 305.3 13.5 295 12
2007-06-01 07:32:32 51°18.282 2°49.528 305.4 13.5 295 12
2007-06-01 07:32:37 51°18.29 2°49.501 305.3 13.5 295 11.7
2007-06-01 07:32:42 51°18.297 2°49.474 305.2 13.5 294 11.4
2007-06-01 07:32:47 51°18.305 2°49.447 304.6 13.5 294 10.9
2007-06-01 07:32:52 51°18.313 2°49.419 304.1 13.5 294 10.4
2007-06-01 07:32:57 51°18.32 2°49.392 304.1 13.5 294 10.2
2007-06-01 07:33:02 51°18.328 2°49.365 304.1 13.5 294 10.6
2007-06-01 07:33:07 51°18.335 2°49.337 303.9 13.6 294 10.7
2007-06-01 07:33:12 51°18.343 2°49.309 304.1 13.6 294 10.5
2007-06-01 07:33:17 51°18.351 2°49.282 303.9 13.6 294 10.3
2007-06-01 07:33:22 51°18.358 2°49.254 303.9 13.6 294 10.2
2007-06-01 07:33:27 51°18.366 2°49.227 303.8 13.5 294 10
2007-06-01 07:33:32 51°18.374 2°49.2 303.8 13.5 294 9.7
2007-06-01 07:33:37 51°18.381 2°49.172 304 13.5 294 9.6
2007-06-01 07:33:42 51°18.389 2°49.145 304.2 13.5 295 9.3
2007-06-01 07:33:47 51°18.397 2°49.118 304.4 13.5 294 9.2
2007-06-01 07:33:52 51°18.405 2°49.091 304.3 13.5 295 9.4
2007-06-01 07:33:57 51°18.413 2°49.064 304.4 13.5 295 9.5
2007-06-01 07:34:02 51°18.421 2°49.037 304.6 13.6 295 9.8
2007-06-01 07:34:07 51°18.429 2°49.009 304.4 13.7 295 9.7
2007-06-01 07:34:12 51°18.437 2°48.982 304.3 13.7 295 9.7
2007-06-01 07:34:17 51°18.445 2°48.954 304.2 13.7 295 9.8
2007-06-01 07:34:22 51°18.453 2°48.926 304.3 13.7 295 9.7
2007-06-01 07:34:27 51°18.461 2°48.898 304.1 13.7 294 9.6
2007-06-01 07:34:32 51°18.469 2°48.871 303.9 13.6 295 9.4
2007-06-01 07:34:37 51°18.476 2°48.843 304.1 13.6 294 9.1
2007-06-01 07:34:42 51°18.484 2°48.816 304.1 13.6 295 9.2
2007-06-01 07:34:47 51°18.492 2°48.789 303.9 13.6 295 9.4
2007-06-01 07:34:52 51°18.5 2°48.761 303.9 13.7 295 9.8
2007-06-01 07:34:57 51°18.508 2°48.733 303.9 13.8 294 9.9
2007-06-01 07:35:02 51°18.516 2°48.705 303.4 13.8 295 10
2007-06-01 07:35:07 51°18.525 2°48.678 303.5 13.8 295 10.1
2007-06-01 07:35:12 51°18.533 2°48.65 304 13.8 295 10
2007-06-01 07:35:17 51°18.541 2°48.622 303.7 13.7 295 9.8
2007-06-01 07:35:22 51°18.549 2°48.595 304.1 13.7 295 9.9
2007-06-01 07:35:27 51°18.557 2°48.567 303.8 13.7 295 9.8
2007-06-01 07:35:32 51°18.565 2°48.54 303.9 13.7 295 9.8
2007-06-01 07:35:37 51°18.573 2°48.512 304 13.8 295 10.3
2007-06-01 07:35:42 51°18.581 2°48.484 304 13.9 295 10.6
2007-06-01 07:35:47 51°18.589 2°48.456 303.7 13.9 295 11.1
2007-06-01 07:35:52 51°18.597 2°48.428 304 13.9 295 11.4
2007-06-01 07:35:57 51°18.605 2°48.4 304.1 13.9 295 11.5
2007-06-01 07:36:02 51°18.613 2°48.372 304.1 13.8 295 11.3
2007-06-01 07:36:07 51°18.621 2°48.345 304 13.8 295 11.5
2007-06-01 07:36:12 51°18.629 2°48.317 304 13.8 295 11.8
2007-06-01 07:36:17 51°18.637 2°48.289 304 13.9 295 12
2007-06-01 07:36:22 51°18.645 2°48.261 303.9 13.9 295 12.5
2007-06-01 07:36:27 51°18.654 2°48.233 303.9 13.9 295 12.6
2007-06-01 07:36:32 51°18.662 2°48.206 304.1 13.8 295 12.8
2007-06-01 07:36:37 51°18.67 2°48.178 304.3 13.8 295 13.1
2007-06-01 07:36:42 51°18.678 2°48.15 304.4 13.8 295 13
2007-06-01 07:36:47 51°18.686 2°48.122 304.4 13.9 295 13.3
2007-06-01 07:36:52 51°18.694 2°48.095 304.4 13.7 295 13.2
2007-06-01 07:36:57 51°18.702 2°48.067 304.6 13.8 295 13.4
2007-06-01 07:37:02 51°18.71 2°48.039 304.2 13.8 294 13.4
2007-06-01 07:37:07 51°18.718 2°48.011 303.7 13.8 295 13.6
2007-06-01 07:37:12 51°18.726 2°47.983 303.9 13.8 294 13.8
2007-06-01 07:37:17 51°18.734 2°47.956 304 13.8 294 14.1
2007-06-01 07:37:22 51°18.742 2°47.928 304.2 13.9 294 14.2
2007-06-01 07:37:27 51°18.75 2°47.9 304 13.9 294 14.4
2007-06-01 07:37:32 51°18.757 2°47.872 303.8 13.8 294 14.4
2007-06-01 07:37:37 51°18.765 2°47.844 303.9 13.8 294 14.7
2007-06-01 07:37:42 51°18.773 2°47.816 304.1 13.8 294 14.8
2007-06-01 07:37:47 51°18.781 2°47.788 304.1 13.8 295 15
2007-06-01 07:37:52 51°18.789 2°47.76 304.1 13.9 294 15.2
2007-06-01 07:37:57 51°18.796 2°47.732 304.1 13.8 294 15.3
2007-06-01 07:38:02 51°18.804 2°47.704 303.9 13.8 294 15.6
2007-06-01 07:38:07 51°18.812 2°47.676 303.9 13.8 294 15.6
2007-06-01 07:38:12 51°18.819 2°47.648 303.8 13.8 294 16
2007-06-01 07:38:17 51°18.827 2°47.62 303.7 13.8 294 16.1
2007-06-01 07:38:22 51°18.835 2°47.592 303.8 13.8 294 16.4
2007-06-01 07:38:27 51°18.843 2°47.564 303.9 13.8 294 16.9
2007-06-01 07:38:32 51°18.851 2°47.536 304.1 13.8 295 17.5
2007-06-01 07:38:37 51°18.858 2°47.508 304.1 13.8 295 17.7
2007-06-01 07:38:42 51°18.867 2°47.48 304.5 13.8 295 16.9
2007-06-01 07:38:47 51°18.874 2°47.453 304.8 13.7 294 17.5
2007-06-01 07:38:52 51°18.882 2°47.425 304.4 13.7 295 17.7
2007-06-01 07:38:57 51°18.89 2°47.397 304.6 13.7 294 17.8
2007-06-01 07:39:02 51°18.898 2°47.37 304.7 13.8 294 17.8
2007-06-01 07:39:07 51°18.906 2°47.342 304.1 13.7 294 17.9
2007-06-01 07:39:12 51°18.914 2°47.314 304.1 13.8 294 18
2007-06-01 07:39:17 51°18.922 2°47.286 304 13.8 294 18.2
2007-06-01 07:39:22 51°18.93 2°47.258 304.1 13.8 294 18.3
2007-06-01 07:39:27 51°18.937 2°47.23 304.1 13.9 294 18.5
2007-06-01 07:39:32 51°18.945 2°47.202 303.8 13.9 294 18.8
2007-06-01 07:39:37 51°18.953 2°47.174 303.6 13.9 294 18.5
2007-06-01 07:39:42 51°18.96 2°47.145 303.7 13.9 294 18.9
2007-06-01 07:39:47 51°18.968 2°47.117 304.2 13.9 293 19.2
2007-06-01 07:39:52 51°18.976 2°47.089 304 13.9 294 19.3
2007-06-01 07:39:57 51°18.983 2°47.06 304 13.9 294 19.3
2007-06-01 07:40:02 51°18.991 2°47.032 304 14 293 19.5
2007-06-01 07:40:07 51°18.999 2°47.004 304 14 293 19.5
2007-06-01 07:40:12 51°19.007 2°46.975 304 14 293 19.8
2007-06-01 07:40:17 51°19.014 2°46.946 304.1 14.1 293 19.9
2007-06-01 07:40:22 51°19.022 2°46.918 304 14.1 293 20
2007-06-01 07:40:27 51°19.03 2°46.889 303.9 14.1 293 20.1
2007-06-01 07:40:32 51°19.038 2°46.86 303.7 14 293 20.1
2007-06-01 07:40:37 51°19.045 2°46.832 303.9 14.1 293 20.2
2007-06-01 07:40:42 51°19.053 2°46.803 304 14.1 293 19.9
2007-06-01 07:40:47 51°19.061 2°46.774 303.9 14.1 293 19.9
2007-06-01 07:40:52 51°19.068 2°46.746 303.9 14.1 294 20
2007-06-01 07:40:57 51°19.076 2°46.717 304.3 14.1 293 20.2
2007-06-01 07:41:02 51°19.084 2°46.689 304.4 14.1 294 20.3
2007-06-01 07:41:07 51°19.092 2°46.66 304.5 14.1 294 20.2
2007-06-01 07:41:12 51°19.1 2°46.632 304.7 14.1 294 20.2
2007-06-01 07:41:17 51°19.108 2°46.603 304.5 14.2 294 20.5
2007-06-01 07:41:22 51°19.116 2°46.574 304.4 14.1 294 20.2
2007-06-01 07:41:27 51°19.124 2°46.545 304.4 14.2 294 20.4
2007-06-01 07:41:32 51°19.131 2°46.517 304.6 14.2 294 20.5
2007-06-01 07:41:37 51°19.139 2°46.488 304.5 14.2 293 20.2
2007-06-01 07:41:42 51°19.147 2°46.459 304.2 14.2 293 20.1
2007-06-01 07:41:47 51°19.155 2°46.43 304 14.2 293 20
2007-06-01 07:41:52 51°19.162 2°46.401 303.9 14.2 293 19.8
2007-06-01 07:41:57 51°19.17 2°46.372 304 14.2 294 20.1
2007-06-01 07:42:02 51°19.178 2°46.344 304.2 14.2 293 19.8
2007-06-01 07:42:07 51°19.186 2°46.315 304.5 14.2 294 19.7
2007-06-01 07:42:12 51°19.194 2°46.286 304.5 14.2 294 19.7
2007-06-01 07:42:17 51°19.202 2°46.257 304.5 14.2 294 19.5
2007-06-01 07:42:22 51°19.21 2°46.228 304.8 14.2 293 19.5
2007-06-01 07:42:27 51°19.218 2°46.2 304.6 14.2 294 19.6
2007-06-01 07:42:32 51°19.226 2°46.171 304.3 14.2 293 18.6
2007-06-01 07:42:37 51°19.233 2°46.142 304.3 14.2 293 18.6
2007-06-01 07:42:42 51°19.241 2°46.113 304.1 14.2 293 17.8
2007-06-01 07:42:47 51°19.249 2°46.084 303.8 14.2 294 18.8
2007-06-01 07:42:52 51°19.256 2°46.055 304 14.2 293 18.8
2007-06-01 07:42:57 51°19.264 2°46.026 304.1 14.2 293 18.4
2007-06-01 07:43:02 51°19.272 2°45.998 304.1 14.2 293 18.3
2007-06-01 07:43:07 51°19.28 2°45.969 304 14.1 294 17.8
2007-06-01 07:43:12 51°19.287 2°45.94 304.2 14.1 293 17.6
2007-06-01 07:43:17 51°19.295 2°45.912 304.2 14.1 294 16.7
2007-06-01 07:43:22 51°19.303 2°45.883 304.3 14.1 293 16.2
2007-06-01 07:43:27 51°19.311 2°45.855 304.5 14.1 294 16.7
2007-06-01 07:43:32 51°19.319 2°45.826 304.4 14.1 293 16
2007-06-01 07:43:37 51°19.326 2°45.797 304.5 14.1 293 15.1
2007-06-01 07:43:42 51°19.334 2°45.769 304.5 14.1 294 15.5
2007-06-01 07:43:47 51°19.342 2°45.74 304.3 14.1 294 15.4
2007-06-01 07:43:52 51°19.35 2°45.712 304.3 14.1 294 14.8
2007-06-01 07:43:57 51°19.358 2°45.683 304.6 14.1 294 14.4
2007-06-01 07:44:02 51°19.366 2°45.655 304.6 14.1 294 13.6
2007-06-01 07:44:07 51°19.374 2°45.626 304.6 14 294 13.3
2007-06-01 07:44:12 51°19.382 2°45.598 304.6 14 294 13.4
2007-06-01 07:44:17 51°19.39 2°45.57 304.6 14 294 12.1
2007-06-01 07:44:22 51°19.398 2°45.542 304.7 14 295 12.9
2007-06-01 07:44:27 51°19.406 2°45.513 304.6 14 295 12.3
2007-06-01 07:44:32 51°19.414 2°45.485 304.8 13.9 295 10.4
2007-06-01 07:44:37 51°19.422 2°45.457 304.9 13.9 295 12.3
2007-06-01 07:44:42 51°19.431 2°45.429 304.8 14 295 12.1
2007-06-01 07:44:47 51°19.439 2°45.402 304.9 13.9 296 11.3
2007-06-01 07:44:52 51°19.447 2°45.373 305.3 13.9 295 10.9
2007-06-01 07:44:57 51°19.455 2°45.346 304.5 13.9 296 10.5
2007-06-01 07:45:02 51°19.464 2°45.318 304.8 13.8 296 9.5
2007-06-01 07:45:07 51°19.472 2°45.291 305.1 13.8 296 10.2
2007-06-01 07:45:12 51°19.48 2°45.263 305 13.9 295 10.6
2007-06-01 07:45:17 51°19.489 2°45.235 305 14 296 9.8
2007-06-01 07:45:22 51°19.497 2°45.207 305 14 295 12
2007-06-01 07:45:27 51°19.505 2°45.178 304.5 14.2 295 13.2
2007-06-01 07:45:32 51°19.514 2°45.149 304.4 14.3 295 14.2
2007-06-01 07:45:37 51°19.522 2°45.121 304.3 14.3 296 15.8
2007-06-01 07:45:42 51°19.531 2°45.092 304.2 14.2 295 14
2007-06-01 07:45:47 51°19.539 2°45.064 304.2 14.1 295 15.2
2007-06-01 07:45:52 51°19.548 2°45.036 304.5 14.1 295 16.9
2007-06-01 07:45:57 51°19.556 2°45.007 304.5 14.1 295 17.2
2007-06-01 07:46:02 51°19.564 2°44.979 304.1 14.1 296 18.3
2007-06-01 07:46:07 51°19.573 2°44.951 304.3 14 295 19.4
2007-06-01 07:46:12 51°19.581 2°44.923 304.4 14 295 19.9
2007-06-01 07:46:17 51°19.589 2°44.895 304.4 14 295 20.1
2007-06-01 07:46:22 51°19.597 2°44.867 303.9 14 295 20.4
2007-06-01 07:46:27 51°19.605 2°44.838 304.1 13.9 294 20.6
2007-06-01 07:46:32 51°19.613 2°44.81 303.7 13.9 295 20.7
2007-06-01 07:46:37 51°19.621 2°44.782 304 13.9 294 20.8
2007-06-01 07:46:42 51°19.629 2°44.754 303.9 13.9 294 21
2007-06-01 07:46:47 51°19.637 2°44.726 303.7 13.9 294 21
2007-06-01 07:46:52 51°19.645 2°44.698 303.7 13.9 294 21.1
2007-06-01 07:46:57 51°19.653 2°44.669 303.7 13.9 294 21
2007-06-01 07:47:02 51°19.661 2°44.641 303.6 13.9 294 21.1
2007-06-01 07:47:07 51°19.668 2°44.613 303.6 13.9 294 21.2
2007-06-01 07:47:12 51°19.677 2°44.585 303.6 13.9 294 21.3
2007-06-01 07:47:17 51°19.684 2°44.557 303.9 13.9 294 21.4
2007-06-01 07:47:22 51°19.693 2°44.529 304.1 13.9 294 21.6
2007-06-01 07:47:27 51°19.701 2°44.501 304.3 13.9 295 21.5
2007-06-01 07:47:32 51°19.709 2°44.473 304.5 13.9 294 21.8
2007-06-01 07:47:37 51°19.717 2°44.445 304.5 14 294 22
2007-06-01 07:47:42 51°19.725 2°44.416 304.4 14 295 22.2
2007-06-01 07:47:47 51°19.733 2°44.388 304.3 14 294 22.2
2007-06-01 07:47:52 51°19.741 2°44.36 304.5 14 295 22.3
2007-06-01 07:47:57 51°19.749 2°44.332 304.5 14 294 22.7
2007-06-01 07:48:02 51°19.757 2°44.304 304.1 14 294 22.8
2007-06-01 07:48:07 51°19.765 2°44.275 304.1 14 294 22.6
2007-06-01 07:48:12 51°19.773 2°44.247 304.2 14 294 22.6
2007-06-01 07:48:17 51°19.78 2°44.219 303.9 14 294 22.7
2007-06-01 07:48:22 51°19.788 2°44.19 304.1 14.1 294 22.6
2007-06-01 07:48:27 51°19.796 2°44.162 304.2 14 294 22.8
2007-06-01 07:48:32 51°19.804 2°44.133 304.2 14.1 294 22.6
2007-06-01 07:48:37 51°19.812 2°44.105 304.1 14 294 23
2007-06-01 07:48:42 51°19.82 2°44.076 304.1 14 294 22.8
2007-06-01 07:48:47 51°19.828 2°44.048 304.2 14 294 23.2
2007-06-01 07:48:52 51°19.836 2°44.02 304 14 294 22.9
2007-06-01 07:48:57 51°19.843 2°43.991 304.1 14 293 22.8
2007-06-01 07:49:02 51°19.851 2°43.963 304.2 14.1 294 22.7
2007-06-01 07:49:07 51°19.859 2°43.934 304.1 14.1 294 21.9
2007-06-01 07:49:12 51°19.867 2°43.905 304.1 14.1 294 22.7
2007-06-01 07:49:17 51°19.875 2°43.877 304 14.1 294 23.2
2007-06-01 07:49:22 51°19.883 2°43.849 304.2 14.1 294 23.8
2007-06-01 07:49:27 51°19.89 2°43.82 304.4 14.1 294 23.9
2007-06-01 07:49:32 51°19.899 2°43.791 304.1 14.1 294 24.3
2007-06-01 07:49:37 51°19.906 2°43.763 304.3 14.1 294 24.4
2007-06-01 07:49:42 51°19.914 2°43.734 304.2 14.1 294 24.6
2007-06-01 07:49:47 51°19.922 2°43.706 304.1 14.2 293 25
2007-06-01 07:49:52 51°19.93 2°43.677 303.8 14.1 294 25.1
2007-06-01 07:49:57 51°19.938 2°43.648 304 14.2 293 25.3
2007-06-01 07:50:02 51°19.946 2°43.62 304.1 14.1 294 25.5
2007-06-01 07:50:07 51°19.954 2°43.591 304.1 14.1 294 25.5
2007-06-01 07:50:12 51°19.962 2°43.563 304.1 14.1 294 25.6
2007-06-01 07:50:17 51°19.97 2°43.534 304.5 14.1 293 25.8
2007-06-01 07:50:22 51°19.978 2°43.505 304.2 14.1 294 25.8
2007-06-01 07:50:27 51°19.986 2°43.477 304.2 14.1 294 25.9
2007-06-01 07:50:32 51°19.993 2°43.448 304.2 14.1 294 25.9
2007-06-01 07:50:37 51°20.001 2°43.419 304.2 14.1 293 25.8
2007-06-01 07:50:42 51°20.009 2°43.391 304.1 14.1 293 25.7
2007-06-01 07:50:47 51°20.017 2°43.362 303.9 14.2 293 25.3
2007-06-01 07:50:52 51°20.025 2°43.333 303.7 14.1 294 25.2
2007-06-01 07:50:57 51°20.032 2°43.304 304 14.2 293 25.2
2007-06-01 07:51:02 51°20.04 2°43.275 304.1 14.1 294 25.3
2007-06-01 07:51:07 51°20.048 2°43.247 304.1 14.2 294 25.5
2007-06-01 07:51:12 51°20.056 2°43.218 304 14.2 294 25.2
2007-06-01 07:51:17 51°20.064 2°43.19 304.6 14.1 294 25.5
2007-06-01 07:51:22 51°20.072 2°43.161 304.7 14.1 294 25.5
2007-06-01 07:51:27 51°20.08 2°43.132 304.6 14.1 294 25.8
2007-06-01 07:51:32 51°20.088 2°43.104 304.6 14.1 293 25.4
2007-06-01 07:51:37 51°20.095 2°43.075 304.2 14.2 293 25.5
2007-06-01 07:51:42 51°20.103 2°43.046 304.1 14.1 293 25.5
2007-06-01 07:51:47 51°20.111 2°43.017 303.9 14.1 293 25.2
2007-06-01 07:51:52 51°20.118 2°42.989 303.9 14.1 293 25.3
2007-06-01 07:51:57 51°20.126 2°42.96 303.7 14.1 293 25.3
2007-06-01 07:52:02 51°20.134 2°42.931 304.1 14.1 293 25.3
2007-06-01 07:52:07 51°20.142 2°42.903 303.9 14.1 293 24.6
2007-06-01 07:52:12 51°20.149 2°42.874 304.2 14.1 293 23.6
2007-06-01 07:52:17 51°20.157 2°42.845 303.7 14.1 294 24.3
2007-06-01 07:52:22 51°20.165 2°42.816 304.4 14.1 293 24.4
2007-06-01 07:52:27 51°20.173 2°42.788 304.1 14 294 24.3
2007-06-01 07:52:32 51°20.18 2°42.759 304.4 14.1 293 24.5
2007-06-01 07:52:37 51°20.188 2°42.731 304.4 14.1 294 24.2
2007-06-01 07:52:42 51°20.196 2°42.702 304.4 14.1 293 24
2007-06-01 07:52:47 51°20.204 2°42.673 304.4 14.1 294 23.9
2007-06-01 07:52:52 51°20.212 2°42.645 304.4 14.1 294 23.6
2007-06-01 07:52:57 51°20.219 2°42.616 304.5 14 293 22.7
2007-06-01 07:53:02 51°20.227 2°42.588 304.4 14 293 22.4
2007-06-01 07:53:07 51°20.235 2°42.559 304.3 14.1 293 21.7
2007-06-01 07:53:12 51°20.243 2°42.53 304.1 14.1 294 22.5
2007-06-01 07:53:17 51°20.25 2°42.502 304.3 14.1 293 22.6
2007-06-01 07:53:22 51°20.258 2°42.473 304.7 14.1 293 22.7
2007-06-01 07:53:27 51°20.266 2°42.444 304.5 14.1 293 21.5
2007-06-01 07:53:32 51°20.274 2°42.416 304.5 14 293 20.9
2007-06-01 07:53:37 51°20.282 2°42.387 304.2 14 294 21.5
2007-06-01 07:53:42 51°20.289 2°42.359 304.2 14.1 293 21.3
2007-06-01 07:53:47 51°20.297 2°42.33 304.3 14.1 294 21.2
2007-06-01 07:53:52 51°20.305 2°42.302 304.5 14 294 19.8
2007-06-01 07:53:57 51°20.313 2°42.274 304.7 14 294 19.3
2007-06-01 07:54:02 51°20.321 2°42.245 304.8 14 294 19.9
2007-06-01 07:54:07 51°20.329 2°42.217 304.6 14 294 19.3
2007-06-01 07:54:12 51°20.337 2°42.188 304.4 14 294 16.7
2007-06-01 07:54:17 51°20.344 2°42.16 304.4 14 293 15.6
2007-06-01 07:54:22 51°20.352 2°42.131 303.9 14 294 17.8
2007-06-01 07:54:27 51°20.361 2°42.103 303.9 14 295 18.9
2007-06-01 07:54:32 51°20.369 2°42.075 304.6 14 294 18.4
2007-06-01 07:54:37 51°20.377 2°42.047 304.8 13.9 295 16.5
2007-06-01 07:54:42 51°20.385 2°42.019 305 14 295 17.5
2007-06-01 07:54:47 51°20.394 2°41.991 304.8 13.9 296 18.2
2007-06-01 07:54:52 51°20.402 2°41.963 304.7 14 295 17.8
2007-06-01 07:54:57 51°20.41 2°41.935 304.5 13.9 295 15
2007-06-01 07:55:02 51°20.418 2°41.907 304.3 13.9 295 17.4
2007-06-01 07:55:07 51°20.426 2°41.879 304.4 13.9 295 18.3
2007-06-01 07:55:12 51°20.434 2°41.851 304.2 14 294 19.5
2007-06-01 07:55:17 51°20.442 2°41.822 304.1 14 294 18.4
2007-06-01 07:55:22 51°20.45 2°41.794 303.7 14 294 19.6
2007-06-01 07:55:27 51°20.458 2°41.766 304 13.9 295 19.9
2007-06-01 07:55:32 51°20.466 2°41.738 304.2 14 295 20.3
2007-06-01 07:55:37 51°20.474 2°41.71 304.1 13.9 295 20.8
2007-06-01 07:55:42 51°20.483 2°41.682 304.3 13.9 296 19.5
2007-06-01 07:55:47 51°20.491 2°41.655 304.7 13.9 296 20.1
2007-06-01 07:55:52 51°20.499 2°41.627 305 13.8 296 19.8
2007-06-01 07:55:57 51°20.508 2°41.599 304.8 14 295 19.5
2007-06-01 07:56:02 51°20.516 2°41.571 304.4 13.9 296 19.8
2007-06-01 07:56:07 51°20.524 2°41.543 304.2 13.9 295 20.1
2007-06-01 07:56:12 51°20.533 2°41.516 304.2 13.9 296 20
2007-06-01 07:56:17 51°20.541 2°41.488 304.3 13.8 296 20.1
2007-06-01 07:56:22 51°20.549 2°41.461 304.7 13.9 295 20.6
2007-06-01 07:56:27 51°20.557 2°41.433 304.4 13.9 295 21.8
2007-06-01 07:56:32 51°20.566 2°41.405 303.7 13.9 295 22.7
2007-06-01 07:56:37 51°20.574 2°41.377 303.7 13.8 295 23.1
2007-06-01 07:56:42 51°20.582 2°41.349 304 13.8 295 22.1
2007-06-01 07:56:47 51°20.589 2°41.321 304 13.8 293 23.3
2007-06-01 07:56:52 51°20.596 2°41.292 302.7 13.9 291 24.6
2007-06-01 07:56:57 51°20.603 2°41.264 301 14 291 25.6
2007-06-01 07:57:02 51°20.61 2°41.234 300.1 14 290 26.4
2007-06-01 07:57:07 51°20.616 2°41.205 299.3 13.9 290 26.8
2007-06-01 07:57:12 51°20.623 2°41.176 299.3 14 290 26.9
2007-06-01 07:57:17 51°20.63 2°41.147 299.4 14 289 26.8
2007-06-01 07:57:22 51°20.636 2°41.118 299 14 289 26.7
2007-06-01 07:57:27 51°20.642 2°41.088 298.8 14 289 26.6
2007-06-01 07:57:32 51°20.649 2°41.059 298.8 14 289 26
2007-06-01 07:57:37 51°20.655 2°41.03 298.9 13.9 290 26.2
2007-06-01 07:57:42 51°20.66 2°41 299.2 14 285 25.6
2007-06-01 07:57:47 51°20.665 2°40.97 296.4 14 283 25.7
2007-06-01 07:57:52 51°20.669 2°40.94 293.4 14.1 282 25.4
2007-06-01 07:57:57 51°20.672 2°40.909 291.2 14 281 25.1
2007-06-01 07:58:02 51°20.676 2°40.878 289.7 14.1 280 25
2007-06-01 07:58:07 51°20.679 2°40.848 288.8 14.1 280 25.3
2007-06-01 07:58:12 51°20.682 2°40.817 288 14.1 278 25.3
2007-06-01 07:58:17 51°20.685 2°40.786 287 14.2 278 25.7
2007-06-01 07:58:22 51°20.688 2°40.755 286.6 14.2 278 25.4
2007-06-01 07:58:27 51°20.69 2°40.723 286 14.2 277 25.6
2007-06-01 07:58:32 51°20.693 2°40.692 285.5 14.2 278 25.4
2007-06-01 07:58:37 51°20.695 2°40.661 285.8 14.2 278 25.7
2007-06-01 07:58:42 51°20.698 2°40.63 285.9 14.2 278 25.8
2007-06-01 07:58:47 51°20.701 2°40.599 286 14.2 278 26.1
2007-06-01 07:58:52 51°20.703 2°40.567 286.2 14.2 278 26.1
2007-06-01 07:58:57 51°20.706 2°40.536 285.9 14.1 278 26.2
2007-06-01 07:59:02 51°20.709 2°40.505 286 14.2 278 26.3
2007-06-01 07:59:07 51°20.711 2°40.474 286 14.1 278 26.2
2007-06-01 07:59:12 51°20.714 2°40.443 286 14.1 278 26.3
2007-06-01 07:59:17 51°20.717 2°40.412 286.4 14.2 278 26.3
2007-06-01 07:59:22 51°20.72 2°40.381 285.9 14.1 278 26.4
2007-06-01 07:59:27 51°20.722 2°40.35 285.9 14.1 279 26.4
2007-06-01 07:59:32 51°20.725 2°40.319 286.3 14.1 278 25.6
2007-06-01 07:59:37 51°20.728 2°40.288 286.5 14.2 278 25.3
2007-06-01 07:59:42 51°20.731 2°40.257 286.6 14.1 278 25.5
2007-06-01 07:59:47 51°20.733 2°40.226 286.3 14.1 278 25.8
2007-06-01 07:59:52 51°20.736 2°40.195 286.5 14.2 278 25.7
2007-06-01 07:59:57 51°20.739 2°40.164 286.5 14.1 278 25.9
2007-06-01 08:00:02 51°20.742 2°40.133 286.5 14.1 278 26
2007-06-01 08:00:07 51°20.744 2°40.103 286.5 14.1 278 26.2
2007-06-01 08:00:12 51°20.747 2°40.072 286.3 14.1 278 26.4
2007-06-01 08:00:17 51°20.75 2°40.041 286.6 14.1 278 26.3
2007-06-01 08:00:22 51°20.753 2°40.01 286.3 14.2 278 26.1
2007-06-01 08:00:27 51°20.755 2°39.979 286.5 14.1 278 25.8
2007-06-01 08:00:32 51°20.758 2°39.948 286.3 14.1 278 25.7
2007-06-01 08:00:37 51°20.761 2°39.917 286.5 14.2 278 25.3
2007-06-01 08:00:42 51°20.764 2°39.886 286.6 14.2 278 25.1
2007-06-01 08:00:47 51°20.766 2°39.855 286.7 14.1 278 24.9
2007-06-01 08:00:52 51°20.769 2°39.824 286.8 14.1 278 24.8
2007-06-01 08:00:57 51°20.772 2°39.793 286.7 14.2 278 24.4
2007-06-01 08:01:02 51°20.775 2°39.762 286.6 14.2 278 24.2
2007-06-01 08:01:07 51°20.777 2°39.731 286.6 14.2 277 23.9
2007-06-01 08:01:12 51°20.78 2°39.7 286.2 14.1 278 23.9